createdAt,value
2022-12-12T00:00:46.387Z,4.47
2022-12-12T00:02:48.140Z,4.07
2022-12-12T00:04:49.815Z,3.55
2022-12-12T00:06:51.553Z,4.00
2022-12-12T00:08:53.617Z,4.57
2022-12-12T00:10:55.218Z,3.38
2022-12-12T00:12:56.903Z,5.18
2022-12-12T00:14:58.572Z,4.47
2022-12-12T00:17:00.228Z,4.45
2022-12-12T00:19:01.961Z,3.90
2022-12-12T00:21:06.891Z,3.45
2022-12-12T00:23:08.602Z,5.43
2022-12-12T00:25:10.658Z,3.92
2022-12-12T00:27:12.599Z,3.28
2022-12-12T00:29:14.355Z,4.68
2022-12-12T00:31:16.861Z,3.65
2022-12-12T00:33:19.087Z,4.32
2022-12-12T00:35:20.766Z,3.70
2022-12-12T00:37:22.449Z,3.58
2022-12-12T00:39:24.173Z,5.68
2022-12-12T00:41:26.143Z,5.45
2022-12-12T00:43:28.302Z,4.43
2022-12-12T00:45:29.959Z,4.68
2022-12-12T00:47:31.700Z,4.63
2022-12-12T00:49:33.506Z,4.45
2022-12-12T00:51:35.344Z,6.38
2022-12-12T00:53:38.490Z,4.63
2022-12-12T00:55:40.227Z,6.88
2022-12-12T00:57:41.842Z,59.15
2022-12-12T00:59:49.306Z,21.98
2022-12-12T01:01:50.947Z,8.98
2022-12-12T01:03:53.954Z,5.97
2022-12-12T01:05:55.635Z,6.43
2022-12-12T01:07:57.414Z,5.82
2022-12-12T01:09:59.281Z,5.60
2022-12-12T01:12:00.940Z,5.55
2022-12-12T01:14:02.770Z,5.15
2022-12-12T01:16:06.074Z,5.55
2022-12-12T01:18:08.120Z,5.80
2022-12-12T01:20:20.018Z,5.18
2022-12-12T01:22:23.428Z,6.65
2022-12-12T01:24:25.057Z,5.88
2022-12-12T01:26:26.699Z,5.15
2022-12-12T01:28:31.559Z,7.22
2022-12-12T01:30:33.403Z,4.90
2022-12-12T01:32:35.035Z,4.80
2022-12-12T01:34:36.654Z,4.55
2022-12-12T01:36:38.372Z,5.57
2022-12-12T01:38:39.975Z,5.05
2022-12-12T01:40:41.589Z,5.78
2022-12-12T01:42:43.371Z,7.65
2022-12-12T01:44:51.277Z,7.50
2022-12-12T01:46:52.953Z,6.75
2022-12-12T01:49:23.470Z,7.97
2022-12-12T01:51:26.597Z,8.98
2022-12-12T01:53:29.700Z,10.98
2022-12-12T01:55:31.366Z,10.13
2022-12-12T01:57:36.947Z,10.07
2022-12-12T01:59:39.949Z,12.40
2022-12-12T02:01:42.353Z,11.67
2022-12-12T02:03:44.573Z,11.52
2022-12-12T02:05:55.311Z,12.10
2022-12-12T02:07:59.171Z,11.50
2022-12-12T02:12:02.721Z,12.15
2022-12-12T02:14:04.416Z,11.48
2022-12-12T02:16:21.352Z,10.48
2022-12-12T02:18:37.091Z,11.23
2022-12-12T02:21:03.579Z,11.27
2022-12-12T02:23:35.943Z,11.75
2022-12-12T02:25:56.058Z,11.98
2022-12-12T02:28:00.456Z,10.88
2022-12-12T02:30:09.992Z,11.27
2022-12-12T02:32:48.920Z,10.77
2022-12-12T02:35:00.590Z,10.77
2022-12-12T02:37:32.791Z,11.65
2022-12-12T02:39:43.250Z,13.52
2022-12-12T02:41:59.840Z,10.45
2022-12-12T02:44:07.953Z,11.00
2022-12-12T02:46:28.599Z,10.60
2022-12-12T02:48:54.847Z,10.55
2022-12-12T02:50:58.974Z,9.98
2022-12-12T02:53:00.855Z,10.10
2022-12-12T02:55:03.162Z,12.85
2022-12-12T02:57:12.188Z,11.40
2022-12-12T02:59:52.369Z,12.98
2022-12-12T03:02:12.687Z,10.38
2022-12-12T03:05:02.838Z,11.38
2022-12-12T03:07:30.908Z,15.23
2022-12-12T03:09:36.392Z,11.30
2022-12-12T03:12:06.231Z,11.95
2022-12-12T03:14:25.324Z,12.57
2022-12-12T03:16:56.094Z,13.85
2022-12-12T03:18:57.664Z,11.52
2022-12-12T03:21:28.859Z,11.82
2022-12-12T03:23:38.674Z,14.13
2022-12-12T03:25:48.411Z,13.75
2022-12-12T03:28:02.410Z,13.43
2022-12-12T03:30:08.542Z,16.83
2022-12-12T03:32:16.778Z,15.65
2022-12-12T03:34:21.246Z,16.60
2022-12-12T03:36:27.110Z,18.27
2022-12-12T03:38:32.357Z,16.77
2022-12-12T03:40:41.620Z,18.38
2022-12-12T03:42:47.669Z,18.48
2022-12-12T03:44:53.797Z,17.38
2022-12-12T03:47:00.381Z,19.20
2022-12-12T03:49:04.994Z,19.63
2022-12-12T03:51:14.518Z,20.20
2022-12-12T03:53:27.661Z,21.55
2022-12-12T03:55:43.799Z,19.83
2022-12-12T03:57:59.381Z,22.73
2022-12-12T04:00:07.405Z,23.05
2022-12-12T04:02:19.755Z,20.73
2022-12-12T04:04:31.649Z,24.13
2022-12-12T04:06:39.482Z,20.38
2022-12-12T04:09:01.084Z,23.30
2022-12-12T04:11:32.556Z,20.20
2022-12-12T04:13:40.205Z,20.77
2022-12-12T04:15:54.308Z,20.58
2022-12-12T04:18:12.161Z,21.70
2022-12-12T04:20:43.201Z,20.88
2022-12-12T04:23:17.902Z,20.35
2022-12-12T04:25:34.711Z,19.60
2022-12-12T04:27:44.599Z,21.92
2022-12-12T04:30:03.506Z,21.30
2022-12-12T04:32:08.276Z,21.70
2022-12-12T04:34:13.746Z,22.00
2022-12-12T04:36:17.268Z,21.02
2022-12-12T04:38:23.571Z,20.17
2022-12-12T04:40:28.619Z,20.55
2022-12-12T04:42:33.569Z,19.60
2022-12-12T04:44:37.123Z,22.02
2022-12-12T04:46:39.180Z,21.00
2022-12-12T04:48:46.445Z,20.90
2022-12-12T04:50:50.066Z,19.65
2022-12-12T04:52:53.950Z,20.08
2022-12-12T04:55:04.461Z,18.90
2022-12-12T04:57:08.885Z,20.15
2022-12-12T04:59:10.521Z,19.30
2022-12-12T05:01:53.597Z,19.98
2022-12-12T05:04:04.940Z,18.88
2022-12-12T05:06:09.965Z,21.10
2022-12-12T05:08:26.993Z,20.60
2022-12-12T05:10:28.852Z,22.45
2022-12-12T05:12:30.556Z,22.38
2022-12-12T05:14:32.307Z,15.65
2022-12-12T05:16:38.847Z,19.38
2022-12-12T05:18:40.496Z,22.20
2022-12-12T05:20:42.116Z,21.95
2022-12-12T05:22:43.780Z,25.10
2022-12-12T05:24:45.365Z,22.90
2022-12-12T05:26:47.150Z,27.55
2022-12-12T05:28:49.119Z,26.55
2022-12-12T05:30:50.788Z,29.40
2022-12-12T05:32:52.447Z,24.67
2022-12-12T05:34:54.126Z,27.40
2022-12-12T05:36:55.768Z,28.98
2022-12-12T05:38:57.425Z,27.92
2022-12-12T05:40:59.069Z,28.25
2022-12-12T05:43:01.134Z,27.65
2022-12-12T05:45:02.801Z,30.38
2022-12-12T05:47:04.651Z,31.25
2022-12-12T05:49:06.292Z,33.13
2022-12-12T05:51:07.897Z,33.13
2022-12-12T05:53:09.667Z,32.00
2022-12-12T05:55:11.888Z,35.45
2022-12-12T05:57:13.692Z,29.13
2022-12-12T05:59:15.640Z,31.13
2022-12-12T06:01:17.357Z,30.73
2022-12-12T06:03:19.236Z,27.10
2022-12-12T06:05:20.975Z,26.40
2022-12-12T06:07:22.659Z,25.25
2022-12-12T06:09:24.535Z,23.63
2022-12-12T06:11:26.214Z,24.80
2022-12-12T06:13:27.888Z,26.58
2022-12-12T06:15:29.765Z,25.75
2022-12-12T06:17:33.528Z,26.52
2022-12-12T06:21:36.841Z,37.88
2022-12-12T06:23:42.909Z,36.63
2022-12-12T06:25:44.527Z,31.30
2022-12-12T06:27:46.131Z,34.83
2022-12-12T06:29:48.167Z,36.50
2022-12-12T06:31:49.856Z,33.53
2022-12-12T06:33:51.672Z,42.88
2022-12-12T06:36:11.881Z,47.58
2022-12-12T06:38:13.748Z,54.40
2022-12-12T06:40:15.576Z,63.03
2022-12-12T06:42:17.175Z,57.35
2022-12-12T06:44:19.006Z,66.97
2022-12-12T06:46:26.116Z,60.75
2022-12-12T06:48:27.811Z,65.95
2022-12-12T06:50:29.473Z,70.90
2022-12-12T06:52:31.430Z,50.50
2022-12-12T06:54:33.003Z,60.13
2022-12-12T06:56:34.569Z,59.38
2022-12-12T06:58:36.877Z,61.03
2022-12-12T07:00:38.538Z,53.63
2022-12-12T07:02:40.230Z,64.00
2022-12-12T07:04:41.940Z,64.13
2022-12-12T07:06:43.569Z,62.78
2022-12-12T07:08:45.188Z,64.18
2022-12-12T07:10:47.096Z,63.65
2022-12-12T07:12:51.111Z,61.38
2022-12-12T07:14:56.209Z,53.38
2022-12-12T07:16:58.181Z,43.22
2022-12-12T07:18:59.996Z,41.45
2022-12-12T07:21:05.474Z,37.30
2022-12-12T07:23:07.480Z,40.47
2022-12-12T07:25:09.185Z,35.88
2022-12-12T07:27:10.916Z,40.25
2022-12-12T07:29:12.517Z,41.20
2022-12-12T07:31:17.059Z,44.30
2022-12-12T07:33:18.888Z,38.15
2022-12-12T07:35:20.468Z,36.55
2022-12-12T07:37:22.262Z,38.55
2022-12-12T07:39:23.896Z,39.55
2022-12-12T07:41:25.586Z,36.05
2022-12-12T07:43:27.497Z,38.67
2022-12-12T07:45:29.186Z,34.75
2022-12-12T07:47:30.785Z,32.03
2022-12-12T07:49:32.841Z,32.55
2022-12-12T07:51:34.736Z,34.08
2022-12-12T07:53:36.327Z,29.55
2022-12-12T07:55:40.384Z,26.83
2022-12-12T07:57:42.125Z,29.17
2022-12-12T07:59:43.753Z,28.10
2022-12-12T08:01:45.426Z,36.15
2022-12-12T08:03:47.931Z,26.00
2022-12-12T08:05:49.564Z,27.17
2022-12-12T08:07:51.265Z,26.65
2022-12-12T08:09:53.259Z,20.90
2022-12-12T08:11:57.093Z,20.40
2022-12-12T08:16:00.641Z,21.83
2022-12-12T08:18:02.336Z,20.23
2022-12-12T08:20:04.058Z,16.92
2022-12-12T08:22:05.637Z,19.98
2022-12-12T08:24:07.218Z,20.58
2022-12-12T08:26:11.223Z,23.10
2022-12-12T08:28:13.013Z,19.55
2022-12-12T08:30:14.778Z,24.35
2022-12-12T08:32:16.402Z,21.10
2022-12-12T08:34:18.038Z,30.35
2022-12-12T08:36:25.918Z,32.58
2022-12-12T08:38:29.033Z,27.02
2022-12-12T08:40:30.681Z,33.25
2022-12-12T08:42:32.495Z,28.77
2022-12-12T08:44:34.104Z,27.42
2022-12-12T08:46:35.966Z,23.35
2022-12-12T08:48:37.935Z,26.45
2022-12-12T08:50:41.233Z,28.05
2022-12-12T08:52:42.797Z,27.88
2022-12-12T08:54:44.469Z,26.95
2022-12-12T08:56:46.240Z,24.17
2022-12-12T08:58:48.135Z,24.55
2022-12-12T09:00:50.414Z,27.00
2022-12-12T09:02:52.099Z,24.75
2022-12-12T09:04:53.802Z,23.30
2022-12-12T09:06:55.453Z,24.63
2022-12-12T09:08:57.586Z,41.28
2022-12-12T09:10:59.429Z,51.35
2022-12-12T09:13:01.033Z,28.77
2022-12-12T09:15:02.999Z,29.88
2022-12-12T09:17:04.646Z,25.50
2022-12-12T09:19:06.309Z,26.73
2022-12-12T09:21:08.408Z,22.92
2022-12-12T09:23:09.956Z,28.33
2022-12-12T09:25:12.171Z,25.63
2022-12-12T09:27:14.270Z,27.65
2022-12-12T09:29:15.923Z,29.58
2022-12-12T09:31:17.607Z,30.73
2022-12-12T09:33:20.009Z,28.63
2022-12-12T09:35:21.559Z,28.50
2022-12-12T09:37:23.237Z,30.27
2022-12-12T09:39:24.922Z,29.38
2022-12-12T09:41:30.765Z,30.70
2022-12-12T09:43:51.616Z,36.13
2022-12-12T09:45:53.618Z,60.25
2022-12-12T09:47:58.244Z,32.05
2022-12-12T09:50:04.373Z,30.92
2022-12-12T09:52:06.233Z,33.55
2022-12-12T09:54:13.326Z,32.70
2022-12-12T09:57:07.519Z,32.60
2022-12-12T09:59:11.888Z,26.45
2022-12-12T10:01:26.203Z,30.02
2022-12-12T10:04:05.113Z,27.42
2022-12-12T10:09:11.451Z,35.65
2022-12-12T10:11:42.332Z,36.53
2022-12-12T10:13:44.013Z,30.90
2022-12-12T10:15:55.217Z,36.35
2022-12-12T10:17:59.052Z,34.28
2022-12-12T10:20:12.701Z,33.03
2022-12-12T10:22:43.309Z,34.55
2022-12-12T10:24:47.827Z,33.78
2022-12-12T10:26:49.416Z,33.17
2022-12-12T10:28:57.779Z,38.25
2022-12-12T10:31:14.776Z,36.10
2022-12-12T10:33:19.007Z,31.67
2022-12-12T10:35:30.810Z,31.73
2022-12-12T10:37:44.505Z,28.05
2022-12-12T10:40:01.184Z,32.03
2022-12-12T10:42:23.649Z,30.92
2022-12-12T10:44:34.218Z,26.08
2022-12-12T10:47:05.838Z,27.35
2022-12-12T10:49:19.552Z,26.52
2022-12-12T10:51:23.297Z,31.58
2022-12-12T10:53:24.897Z,22.67
2022-12-12T10:55:48.499Z,24.33
2022-12-12T10:58:04.199Z,28.40
2022-12-12T11:00:35.329Z,24.35
2022-12-12T11:02:39.957Z,30.00
2022-12-12T11:04:44.893Z,32.75
2022-12-12T11:06:49.649Z,34.10
2022-12-12T11:09:20.973Z,33.22
2022-12-12T11:11:25.213Z,43.90
2022-12-12T11:13:27.132Z,44.97
2022-12-12T11:15:51.752Z,41.75
2022-12-12T11:17:53.409Z,45.30
2022-12-12T11:19:57.483Z,49.95
2022-12-12T11:22:03.679Z,45.92
2022-12-12T11:24:13.187Z,46.97
2022-12-12T11:26:17.651Z,44.22
2022-12-12T11:28:22.888Z,49.13
2022-12-12T11:30:40.026Z,51.70
2022-12-12T11:32:44.715Z,54.10
2022-12-12T11:34:49.935Z,53.13
2022-12-12T11:36:51.626Z,48.78
2022-12-12T11:38:55.603Z,49.35
2022-12-12T11:41:07.068Z,52.92
2022-12-12T11:43:23.931Z,49.67
2022-12-12T11:45:25.523Z,47.00
2022-12-12T11:47:38.660Z,51.70
2022-12-12T11:49:46.906Z,48.80
2022-12-12T11:51:49.203Z,54.95
2022-12-12T11:53:50.798Z,56.65
2022-12-12T11:56:04.470Z,50.13
2022-12-12T11:58:12.244Z,51.80
2022-12-12T12:00:17.891Z,47.40
2022-12-12T12:02:41.478Z,56.78
2022-12-12T12:04:58.938Z,46.28
2022-12-12T12:07:22.263Z,46.42
2022-12-12T12:09:23.964Z,50.22
2022-12-12T12:11:39.658Z,51.60
2022-12-12T12:13:57.473Z,55.55
2022-12-12T12:16:12.361Z,55.85
2022-12-12T12:18:37.007Z,56.08
2022-12-12T12:21:08.843Z,61.63
2022-12-12T12:23:19.730Z,63.38
2022-12-12T12:25:42.389Z,65.82
2022-12-12T12:28:04.217Z,66.03
2022-12-12T12:30:22.273Z,70.15
2022-12-12T12:32:29.543Z,60.92
2022-12-12T12:35:05.028Z,59.67
2022-12-12T12:37:34.463Z,61.60
2022-12-12T12:39:54.759Z,56.50
2022-12-12T12:42:16.909Z,59.92
2022-12-12T12:44:44.588Z,55.80
2022-12-12T12:47:07.685Z,54.97
2022-12-12T12:49:14.823Z,59.90
2022-12-12T12:51:22.406Z,58.45
2022-12-12T12:53:43.712Z,60.13
2022-12-12T12:55:48.884Z,54.00
2022-12-12T12:57:51.818Z,53.90
2022-12-12T12:59:57.375Z,58.50
2022-12-12T13:02:03.431Z,56.40
2022-12-12T13:04:12.986Z,53.88
2022-12-12T13:06:30.462Z,55.33
2022-12-12T13:08:53.719Z,46.55
2022-12-12T13:11:04.257Z,46.92
2022-12-12T13:13:30.655Z,53.58
2022-12-12T13:15:40.953Z,50.90
2022-12-12T13:18:10.494Z,52.22
2022-12-12T13:20:16.923Z,47.72
2022-12-12T13:22:48.881Z,57.58
2022-12-12T13:25:00.192Z,51.38
2022-12-12T13:27:11.614Z,43.20
2022-12-12T13:29:34.472Z,48.88
2022-12-12T13:32:04.016Z,55.65
2022-12-12T13:34:17.368Z,50.10
2022-12-12T13:36:30.234Z,50.83
2022-12-12T13:38:33.473Z,46.10
2022-12-12T13:40:40.266Z,49.00
2022-12-12T13:42:57.057Z,51.40
2022-12-12T13:45:37.912Z,53.90
2022-12-12T13:47:59.520Z,51.83
2022-12-12T13:50:06.849Z,64.07
2022-12-12T13:52:26.115Z,55.67
2022-12-12T13:54:27.643Z,55.80
2022-12-12T13:56:35.156Z,57.28
2022-12-12T13:58:36.760Z,65.45
2022-12-12T14:00:39.869Z,55.42
2022-12-12T14:02:44.494Z,69.78
2022-12-12T14:04:46.757Z,62.53
2022-12-12T14:07:13.188Z,57.70
2022-12-12T14:09:21.748Z,54.85
2022-12-12T14:11:34.924Z,69.70
2022-12-12T14:13:42.941Z,74.80
2022-12-12T14:15:45.367Z,65.53
2022-12-12T14:18:18.134Z,68.47
2022-12-12T14:20:41.077Z,60.25
2022-12-12T14:22:45.714Z,53.55
2022-12-12T14:25:11.842Z,54.20
2022-12-12T14:27:13.532Z,48.60
2022-12-12T14:29:18.087Z,45.90
2022-12-12T14:31:20.100Z,48.40
2022-12-12T14:33:49.231Z,44.67
2022-12-12T14:35:59.903Z,38.60
2022-12-12T14:38:20.188Z,36.40
2022-12-12T14:40:31.256Z,43.80
2022-12-12T14:43:21.231Z,52.63
2022-12-12T14:44:59.520Z,47.13
2022-12-12T14:47:07.501Z,44.45
2022-12-12T14:49:14.561Z,48.47
2022-12-12T14:51:29.534Z,40.42
2022-12-12T14:53:54.645Z,39.38
2022-12-12T14:57:59.055Z,43.58
2022-12-12T15:00:01.313Z,40.63
2022-12-12T15:02:14.927Z,41.15
2022-12-12T15:04:31.538Z,38.22
2022-12-12T15:06:34.927Z,42.30
2022-12-12T15:08:36.591Z,39.80
2022-12-12T15:10:38.248Z,34.55
2022-12-12T15:12:43.807Z,33.17
2022-12-12T15:14:48.614Z,31.52
2022-12-12T15:17:04.721Z,30.77
2022-12-12T15:19:13.497Z,34.58
2022-12-12T15:21:15.754Z,33.10
2022-12-12T15:23:19.056Z,39.50
2022-12-12T15:25:23.239Z,40.92
2022-12-12T15:27:25.153Z,36.90
2022-12-12T15:29:29.296Z,35.38
2022-12-12T15:31:31.048Z,40.03
2022-12-12T15:33:37.812Z,30.25
2022-12-12T15:35:39.492Z,34.53
2022-12-12T15:37:41.123Z,33.20
2022-12-12T15:39:42.729Z,32.03
2022-12-12T15:41:44.915Z,37.15
2022-12-12T15:43:46.662Z,32.38
2022-12-12T15:45:55.015Z,36.35
2022-12-12T15:47:57.332Z,44.25
2022-12-12T15:50:20.945Z,28.70
2022-12-12T15:52:26.950Z,26.77
2022-12-12T15:54:28.619Z,33.28
2022-12-12T15:56:30.266Z,42.40
2022-12-12T15:58:37.237Z,29.48
2022-12-12T16:00:39.716Z,29.67
2022-12-12T16:02:42.493Z,28.92
2022-12-12T16:05:13.383Z,27.58
2022-12-12T16:07:21.598Z,23.05
2022-12-12T16:09:24.494Z,20.35
2022-12-12T16:11:51.833Z,21.75
2022-12-12T16:13:53.486Z,15.40
2022-12-12T16:15:55.135Z,14.30
2022-12-12T16:18:06.830Z,10.75
2022-12-12T16:20:13.969Z,12.75
2022-12-12T16:22:32.886Z,11.80
2022-12-12T16:24:45.720Z,11.82
2022-12-12T16:26:47.487Z,14.75
2022-12-12T16:28:49.215Z,11.38
2022-12-12T16:30:54.218Z,10.57
2022-12-12T16:32:55.857Z,9.35
2022-12-12T16:34:57.420Z,12.55
2022-12-12T16:36:59.005Z,10.40
2022-12-12T16:39:00.565Z,9.57
2022-12-12T16:41:07.122Z,7.70
2022-12-12T16:43:17.579Z,7.50
2022-12-12T16:45:19.186Z,11.18
2022-12-12T16:47:23.155Z,10.95
2022-12-12T16:51:31.154Z,8.27
2022-12-12T16:53:34.711Z,9.52
2022-12-12T16:55:37.631Z,9.77
2022-12-12T16:57:39.220Z,10.63
2022-12-12T16:59:40.982Z,15.23
2022-12-12T17:01:42.666Z,10.73
2022-12-12T17:03:44.452Z,8.77
2022-12-12T17:05:47.305Z,7.05
2022-12-12T17:07:51.035Z,6.93
2022-12-12T17:09:52.663Z,8.27
2022-12-12T17:11:54.418Z,8.73
2022-12-12T17:13:56.020Z,6.63
2022-12-12T17:15:57.690Z,7.40
2022-12-12T17:18:00.119Z,6.47
2022-12-12T17:20:01.738Z,6.95
2022-12-12T17:22:03.654Z,6.60
2022-12-12T17:24:05.470Z,6.68
2022-12-12T17:26:07.152Z,5.55
2022-12-12T17:28:13.526Z,4.82
2022-12-12T17:30:15.513Z,4.82
2022-12-12T17:32:22.816Z,4.90
2022-12-12T17:34:25.893Z,3.83
2022-12-12T17:36:27.585Z,4.05
2022-12-12T17:38:30.986Z,4.10
2022-12-12T17:40:32.579Z,4.47
2022-12-12T17:42:34.216Z,3.97
2022-12-12T17:44:35.908Z,3.88
2022-12-12T17:46:37.504Z,5.50
2022-12-12T17:48:39.104Z,4.18
2022-12-12T17:50:41.981Z,3.78
2022-12-12T17:52:43.734Z,5.70
2022-12-12T17:55:54.169Z,3.90
2022-12-12T17:57:07.072Z,3.97
2022-12-12T17:59:08.987Z,5.38
2022-12-12T18:01:10.758Z,3.90
2022-12-12T18:03:12.400Z,4.28
2022-12-12T18:05:19.468Z,4.03
2022-12-12T18:07:21.146Z,3.75
2022-12-12T18:09:22.808Z,3.35
2022-12-12T18:11:27.412Z,3.03
2022-12-12T18:13:29.153Z,3.97
2022-12-12T18:15:31.038Z,4.82
2022-12-12T18:17:32.728Z,5.53
2022-12-12T18:19:34.835Z,4.60
2022-12-12T18:22:00.387Z,4.78
2022-12-12T18:23:58.974Z,5.25
2022-12-12T18:26:05.611Z,4.97
2022-12-12T18:28:07.267Z,4.20
2022-12-12T18:30:09.556Z,4.75
2022-12-12T18:32:11.208Z,4.63
2022-12-12T18:34:12.834Z,4.47
2022-12-12T18:36:16.390Z,4.55
2022-12-12T18:38:19.385Z,4.80
2022-12-12T18:40:21.191Z,5.37
2022-12-12T18:42:22.792Z,5.53
2022-12-12T18:44:24.423Z,4.80
2022-12-12T18:46:27.375Z,5.40
2022-12-12T18:48:29.328Z,4.83
2022-12-12T18:50:33.134Z,4.68
2022-12-12T18:52:34.834Z,6.25
2022-12-12T18:54:36.436Z,5.82
2022-12-12T18:56:38.166Z,6.72
2022-12-12T18:58:40.058Z,5.93
2022-12-12T19:00:41.861Z,6.57
2022-12-12T19:02:43.539Z,6.30
2022-12-12T19:04:47.071Z,5.45
2022-12-12T19:06:48.758Z,7.43
2022-12-12T19:08:50.452Z,7.82
2022-12-12T19:10:52.071Z,7.55
2022-12-12T19:12:53.610Z,6.85
2022-12-12T19:17:20.752Z,8.60
2022-12-12T19:19:27.046Z,6.40
2022-12-12T19:21:28.667Z,5.97
2022-12-12T19:23:30.339Z,5.70
2022-12-12T19:25:37.633Z,4.93
2022-12-12T19:27:42.822Z,7.53
2022-12-12T19:29:44.457Z,9.45
2022-12-12T19:31:46.358Z,9.43
2022-12-12T19:33:48.140Z,8.65
2022-12-12T19:35:49.702Z,14.07
2022-12-12T19:37:51.260Z,9.27
2022-12-12T19:39:53.337Z,9.80
2022-12-12T19:41:55.268Z,10.20
2022-12-12T19:44:01.507Z,7.80
2022-12-12T19:46:09.078Z,12.70
2022-12-12T19:48:11.650Z,10.40
2022-12-12T19:50:13.653Z,9.98
2022-12-12T19:52:15.475Z,10.43
2022-12-12T19:54:19.388Z,9.73
2022-12-12T19:58:23.346Z,7.70
2022-12-12T20:00:25.985Z,8.02
2022-12-12T20:02:27.690Z,8.35
2022-12-12T20:04:30.418Z,9.20
2022-12-12T20:06:42.099Z,13.57
2022-12-12T20:08:43.818Z,8.30
2022-12-12T20:10:45.425Z,8.93
2022-12-12T20:12:57.873Z,8.13
2022-12-12T20:15:00.200Z,8.40
2022-12-12T20:17:03.200Z,7.32
2022-12-12T20:19:05.066Z,8.00
2022-12-12T20:21:07.626Z,8.63
2022-12-12T20:23:09.279Z,7.85
2022-12-12T20:25:10.992Z,8.45
2022-12-12T20:27:12.753Z,10.07
2022-12-12T20:29:14.808Z,10.63
2022-12-12T20:31:23.281Z,9.07
2022-12-12T20:33:24.907Z,9.82
2022-12-12T20:35:26.681Z,7.95
2022-12-12T20:37:28.328Z,7.82
2022-12-12T20:39:29.966Z,5.85
2022-12-12T20:41:34.253Z,6.45
2022-12-12T20:43:36.159Z,6.32
2022-12-12T20:45:38.633Z,7.35
2022-12-12T20:47:40.230Z,7.00
2022-12-12T20:49:42.423Z,6.63
2022-12-12T20:51:55.455Z,8.73
2022-12-12T20:54:03.023Z,7.82
2022-12-12T20:56:11.043Z,7.35
2022-12-12T20:58:12.956Z,9.20
2022-12-12T21:00:15.577Z,8.95
2022-12-12T21:02:17.502Z,6.47
2022-12-12T21:04:19.522Z,8.93
2022-12-12T21:06:22.548Z,9.05
2022-12-12T21:08:24.358Z,8.35
2022-12-12T21:10:26.288Z,7.50
2022-12-12T21:12:27.955Z,8.60
2022-12-12T21:14:30.913Z,8.82
2022-12-12T21:16:35.329Z,9.57
2022-12-12T21:18:37.621Z,8.27
2022-12-12T21:20:44.322Z,8.38
2022-12-12T21:22:45.988Z,8.57
2022-12-12T21:24:47.563Z,8.75
2022-12-12T21:26:49.192Z,9.18
2022-12-12T21:28:51.290Z,8.98
2022-12-12T21:30:52.918Z,8.98
2022-12-12T21:32:54.857Z,7.63
2022-12-12T21:34:56.463Z,8.85
2022-12-12T21:36:58.055Z,7.05
2022-12-12T21:39:00.827Z,7.60
2022-12-12T21:41:10.632Z,6.70
2022-12-12T21:43:12.460Z,6.93
2022-12-12T21:45:16.179Z,7.57
2022-12-12T21:47:18.129Z,7.47
2022-12-12T21:49:19.765Z,7.00
2022-12-12T21:51:21.433Z,7.43
2022-12-12T21:53:34.891Z,7.57
2022-12-12T21:55:37.999Z,7.05
2022-12-12T21:57:39.733Z,6.82
2022-12-12T21:59:42.000Z,6.80
2022-12-12T22:01:44.026Z,7.22
2022-12-12T22:03:47.008Z,6.97
2022-12-12T22:05:48.633Z,7.40
2022-12-12T22:07:50.300Z,6.72
2022-12-12T22:09:57.638Z,7.18
2022-12-12T22:12:12.334Z,7.63
2022-12-12T22:14:21.542Z,7.13
2022-12-12T22:16:23.398Z,7.15
2022-12-12T22:18:25.364Z,7.82
2022-12-12T22:20:27.213Z,7.60
2022-12-12T22:22:29.127Z,7.32
2022-12-12T22:24:30.663Z,10.77
2022-12-12T22:26:35.134Z,9.00
2022-12-12T22:28:36.691Z,7.90
2022-12-12T22:30:38.879Z,9.52
2022-12-12T22:32:40.474Z,7.72
2022-12-12T22:34:42.119Z,8.02
2022-12-12T22:36:45.107Z,8.70
2022-12-12T22:38:46.694Z,7.50
2022-12-12T22:40:54.976Z,7.97
2022-12-12T22:42:57.606Z,7.05
2022-12-12T22:44:59.222Z,7.72
2022-12-12T22:47:01.355Z,8.95
2022-12-12T22:49:03.161Z,9.57
2022-12-12T22:51:14.381Z,7.15
2022-12-12T22:53:16.209Z,7.97
2022-12-12T22:55:17.860Z,7.97
2022-12-12T22:57:19.447Z,7.82
2022-12-12T22:59:21.346Z,8.82
2022-12-12T23:01:24.335Z,8.45
2022-12-12T23:03:26.009Z,8.73
2022-12-12T23:05:27.783Z,8.80
2022-12-12T23:07:29.421Z,8.18
2022-12-12T23:09:30.995Z,7.65
2022-12-12T23:11:33.482Z,7.38
2022-12-12T23:13:37.587Z,7.57
2022-12-12T23:15:42.480Z,7.00
2022-12-12T23:17:44.300Z,7.68
2022-12-12T23:19:46.221Z,7.15
2022-12-12T23:21:48.063Z,8.25
